Time;durP1;ratioP1;P1;durP2;ratioP2;P2;SDS_P1;SDS_P2;PMS_P1;PMS_P2;Temp;Humidity;BMP_temperature;BMP_pressure;BME280_temperature;BME280_humidity;BME280_pressure;Samples;Min_cycle;Max_cycle;Signal;HPM_P1;HPM_P2
2021/03/15 00:01:15;;;;;;;3.95;1.20;;;;;;;;;;4930172;28;20051;-59
2021/03/15 00:03:43;;;;;;;4.80;1.25;;;;;;;;;;4926473;28;20035;-58
2021/03/15 00:06:09;;;;;;;3.80;1.40;;;;;;;;;;4893517;28;20039;-59
2021/03/15 00:08:34;;;;;;;12.05;1.42;;;;;;;;;;4930799;28;20035;-57
2021/03/15 00:11:01;;;;;;;2.92;0.80;;;;;;;;;;4931132;28;20035;-58
2021/03/15 00:13:26;;;;;;;2.92;0.70;;;;;;;;;;4929204;28;20035;-57
2021/03/15 00:15:55;;;;;;;7.15;0.70;;;;;;;;;;4911326;28;20039;-58
2021/03/15 00:18:24;;;;;;;8.93;1.15;;;;;;;;;;4931309;28;20129;-58
2021/03/15 00:20:53;;;;;;;2.72;0.80;;;;;;;;;;4932537;28;20046;-58
2021/03/15 00:23:18;;;;;;;5.15;0.60;;;;;;;;;;4911210;28;20631;-58
2021/03/15 00:25:43;;;;;;;3.05;0.73;;;;;;;;;;4930007;28;20598;-58
2021/03/15 00:28:12;;;;;;;6.47;0.35;;;;;;;;;;4913286;28;20411;-58
2021/03/15 00:30:38;;;;;;;8.30;0.55;;;;;;;;;;4930503;28;20976;-59
2021/03/15 00:33:05;;;;;;;0.90;0.20;;;;;;;;;;4932889;28;20066;-59
2021/03/15 00:35:33;;;;;;;3.92;0.50;;;;;;;;;;4914746;28;20035;-59
2021/03/15 00:38:04;;;;;;;6.50;0.30;;;;;;;;;;4935177;28;20039;-59
2021/03/15 00:40:29;;;;;;;13.25;0.60;;;;;;;;;;4936320;28;20028;-60
2021/03/15 00:42:57;;;;;;;2.85;0.43;;;;;;;;;;4911268;28;20165;-59
2021/03/15 00:45:26;;;;;;;9.63;0.65;;;;;;;;;;4926446;28;20425;-58
2021/03/15 00:47:52;;;;;;;0.75;0.38;;;;;;;;;;4916618;29;20024;-60
2021/03/15 00:50:22;;;;;;;1.95;0.30;;;;;;;;;;4916699;29;20070;-59
2021/03/15 00:52:48;;;;;;;0.22;0.20;;;;;;;;;;4916349;29;20432;-60
2021/03/15 00:55:13;;;;;;;0.70;0.35;;;;;;;;;;4913609;29;20031;-59
2021/03/15 00:57:43;;;;;;;0.73;0.40;;;;;;;;;;4916886;29;20729;-60
2021/03/15 01:00:09;;;;;;;2.75;0.40;;;;;;;;;;4920999;28;21667;-59
2021/03/15 01:02:37;;;;;;;3.50;0.50;;;;;;;;;;4931554;28;20870;-59
2021/03/15 01:05:06;;;;;;;1.58;0.28;;;;;;;;;;4930988;28;20035;-59
2021/03/15 01:07:34;;;;;;;2.88;0.65;;;;;;;;;;4917577;28;20116;-60
2021/03/15 01:10:00;;;;;;;2.35;0.60;;;;;;;;;;4916837;29;20039;-59
2021/03/15 01:12:28;;;;;;;1.10;0.80;;;;;;;;;;4912701;29;20036;-59
2021/03/15 01:14:56;;;;;;;3.83;0.75;;;;;;;;;;4927810;28;20040;-59
2021/03/15 01:17:24;;;;;;;3.72;0.20;;;;;;;;;;4905709;29;20027;-59
2021/03/15 01:19:52;;;;;;;2.67;0.55;;;;;;;;;;4917221;29;20035;-59
2021/03/15 01:22:17;;;;;;;2.92;0.68;;;;;;;;;;4925841;28;20036;-60
2021/03/15 01:24:43;;;;;;;1.45;0.45;;;;;;;;;;4916030;29;20070;-59
2021/03/15 01:27:10;;;;;;;3.33;0.40;;;;;;;;;;4914977;29;20035;-60
2021/03/15 01:29:36;;;;;;;0.63;0.43;;;;;;;;;;4932153;28;20114;-59
2021/03/15 01:32:03;;;;;;;2.15;0.52;;;;;;;;;;4928535;28;20660;-59
2021/03/15 01:34:31;;;;;;;0.50;0.43;;;;;;;;;;4920174;29;20032;-59
2021/03/15 01:36:59;;;;;;;1.10;0.40;;;;;;;;;;4913680;29;20444;-60
2021/03/15 01:39:27;;;;;;;0.88;0.32;;;;;;;;;;4913430;29;20040;-59
2021/03/15 01:41:55;;;;;;;1.02;0.45;;;;;;;;;;4932397;28;20053;-59
2021/03/15 01:44:22;;;;;;;2.53;0.50;;;;;;;;;;4934121;28;20475;-59
2021/03/15 01:46:48;;;;;;;1.20;0.75;;;;;;;;;;4931666;28;20395;-59
2021/03/15 01:49:15;;;;;;;3.08;0.52;;;;;;;;;;4915766;28;20098;-60
2021/03/15 01:51:43;;;;;;;3.63;0.57;;;;;;;;;;4933091;28;20823;-59
2021/03/15 01:54:09;;;;;;;1.05;0.55;;;;;;;;;;4933994;28;20089;-59
2021/03/15 01:56:38;;;;;;;3.67;0.70;;;;;;;;;;4930114;28;20126;-60
2021/03/15 01:59:03;;;;;;;3.13;1.15;;;;;;;;;;4930946;28;20046;-61
2021/03/15 02:01:31;;;;;;;1.00;0.70;;;;;;;;;;4929823;28;20126;-60
2021/03/15 02:03:56;;;;;;;1.85;0.95;;;;;;;;;;4933030;28;20027;-58
2021/03/15 02:06:22;;;;;;;2.08;0.90;;;;;;;;;;4933565;28;20094;-60
2021/03/15 02:08:50;;;;;;;1.92;0.90;;;;;;;;;;4933175;28;20031;-59
2021/03/15 02:11:21;;;;;;;2.30;1.13;;;;;;;;;;4911415;28;20185;-60
2021/03/15 02:13:58;;;;;;;2.72;1.00;;;;;;;;;;4933518;28;20106;-63
2021/03/15 02:16:36;;;;;;;1.50;0.90;;;;;;;;;;4930352;28;20050;-61
2021/03/15 02:19:21;;;;;;;5.95;0.90;;;;;;;;;;4930538;28;20039;-59
2021/03/15 02:21:47;;;;;;;5.20;1.25;;;;;;;;;;4925049;28;20574;-60
2021/03/15 02:24:19;;;;;;;4.90;1.00;;;;;;;;;;4930281;28;20228;-59
2021/03/15 02:27:05;;;;;;;1.95;1.08;;;;;;;;;;4927863;28;20142;-59
2021/03/15 02:29:50;;;;;;;1.88;1.15;;;;;;;;;;4932004;28;20038;-59
2021/03/15 02:32:20;;;;;;;4.35;1.50;;;;;;;;;;4923166;28;20042;-59
2021/03/15 02:35:14;;;;;;;3.78;1.10;;;;;;;;;;4934611;28;20094;-59
2021/03/15 02:37:46;;;;;;;2.15;1.00;;;;;;;;;;4919997;28;20054;-59
2021/03/15 02:40:31;;;;;;;3.17;1.60;;;;;;;;;;4931528;28;20031;-59
2021/03/15 02:43:01;;;;;;;1.42;0.93;;;;;;;;;;4933040;28;20054;-59
2021/03/15 02:45:29;;;;;;;3.42;1.52;;;;;;;;;;4932027;28;20123;-60
2021/03/15 02:47:55;;;;;;;2.78;1.13;;;;;;;;;;4930368;28;20337;-60
2021/03/15 02:50:25;;;;;;;2.53;1.25;;;;;;;;;;4929432;28;20042;-59
2021/03/15 02:52:51;;;;;;;3.25;1.85;;;;;;;;;;4931799;28;20042;-59
2021/03/15 02:55:25;;;;;;;8.30;1.60;;;;;;;;;;4935256;28;20077;-60
2021/03/15 02:57:54;;;;;;;5.20;2.05;;;;;;;;;;4928094;28;20042;-60
2021/03/15 03:00:21;;;;;;;4.13;2.17;;;;;;;;;;4934519;28;20151;-59
2021/03/15 03:02:50;;;;;;;6.65;2.17;;;;;;;;;;4921730;28;21208;-60
2021/03/15 03:05:21;;;;;;;8.60;2.10;;;;;;;;;;4913768;28;20042;-60
2021/03/15 03:07:48;;;;;;;4.50;1.45;;;;;;;;;;4931086;28;20069;-59
2021/03/15 03:10:15;;;;;;;8.95;1.90;;;;;;;;;;4931719;28;20487;-61
2021/03/15 03:12:44;;;;;;;12.05;2.00;;;;;;;;;;4914517;28;20042;-59
2021/03/15 03:15:13;;;;;;;12.63;2.72;;;;;;;;;;4913303;28;20042;-59
2021/03/15 03:17:39;;;;;;;9.77;2.30;;;;;;;;;;4931453;28;20058;-59
2021/03/15 03:20:17;;;;;;;12.90;2.72;;;;;;;;;;4913457;28;20085;-60
2021/03/15 03:22:44;;;;;;;15.90;2.97;;;;;;;;;;4933182;28;20039;-59
2021/03/15 03:25:15;;;;;;;8.82;1.83;;;;;;;;;;4931001;28;20539;-59
2021/03/15 03:27:54;;;;;;;10.77;2.72;;;;;;;;;;4930303;28;20089;-59
2021/03/15 03:30:21;;;;;;;12.60;2.03;;;;;;;;;;4931774;28;20572;-59
2021/03/15 03:32:50;;;;;;;7.95;2.05;;;;;;;;;;4926953;28;20074;-58
2021/03/15 03:35:20;;;;;;;5.70;1.85;;;;;;;;;;4911534;28;20038;-58
2021/03/15 03:37:45;;;;;;;20.45;3.08;;;;;;;;;;4930335;28;20113;-58
2021/03/15 03:40:12;;;;;;;19.88;2.85;;;;;;;;;;4929641;28;20126;-61
2021/03/15 03:42:37;;;;;;;12.07;2.33;;;;;;;;;;4926768;28;20056;-59
2021/03/15 03:45:05;;;;;;;16.33;3.45;;;;;;;;;;4927007;28;20547;-60
2021/03/15 03:47:38;;;;;;;12.23;2.75;;;;;;;;;;4913695;29;20043;-59
2021/03/15 03:50:11;;;;;;;10.75;2.53;;;;;;;;;;4910289;29;20031;-60
2021/03/15 03:52:39;;;;;;;7.57;2.35;;;;;;;;;;4911597;29;20073;-58
2021/03/15 03:55:11;;;;;;;12.43;2.60;;;;;;;;;;4914618;28;20082;-59
2021/03/15 03:57:40;;;;;;;14.38;2.60;;;;;;;;;;4924966;28;20484;-58
2021/03/15 04:00:07;;;;;;;10.15;2.60;;;;;;;;;;4926807;28;20094;-58
2021/03/15 04:02:33;;;;;;;13.35;2.90;;;;;;;;;;4912200;29;20044;-59
2021/03/15 04:05:06;;;;;;;12.98;3.58;;;;;;;;;;4912298;29;20098;-60
2021/03/15 04:07:38;;;;;;;16.52;2.45;;;;;;;;;;4915783;29;20070;-59
2021/03/15 04:10:05;;;;;;;19.02;2.45;;;;;;;;;;4930498;28;20058;-59
2021/03/15 04:12:35;;;;;;;13.63;2.35;;;;;;;;;;4914863;28;20114;-59
2021/03/15 04:15:06;;;;;;;12.63;2.33;;;;;;;;;;4932255;28;20042;-58
2021/03/15 04:17:36;;;;;;;15.88;3.33;;;;;;;;;;4929468;28;20044;-59
2021/03/15 04:20:05;;;;;;;21.65;2.53;;;;;;;;;;4933315;28;20134;-59
2021/03/15 04:22:38;;;;;;;12.82;2.28;;;;;;;;;;4926313;28;20102;-59
2021/03/15 04:25:06;;;;;;;6.82;2.25;;;;;;;;;;4930229;28;20594;-58
2021/03/15 04:27:32;;;;;;;21.15;2.88;;;;;;;;;;4927247;28;20027;-58
2021/03/15 04:29:58;;;;;;;13.82;2.67;;;;;;;;;;4916248;29;20493;-59
2021/03/15 04:32:24;;;;;;;13.90;2.17;;;;;;;;;;4911172;29;20032;-58
2021/03/15 04:34:52;;;;;;;9.57;2.38;;;;;;;;;;4913238;28;20061;-58
2021/03/15 04:37:25;;;;;;;12.85;2.65;;;;;;;;;;4931802;28;20046;-59
2021/03/15 04:39:53;;;;;;;12.18;3.00;;;;;;;;;;4926453;28;20157;-58
2021/03/15 04:42:24;;;;;;;9.65;2.08;;;;;;;;;;4929872;28;20533;-60
2021/03/15 04:44:50;;;;;;;16.90;2.13;;;;;;;;;;4936680;28;20059;-57
2021/03/15 04:47:18;;;;;;;5.22;1.67;;;;;;;;;;4933743;28;20051;-58
2021/03/15 04:49:44;;;;;;;10.13;1.80;;;;;;;;;;4897836;28;20035;-59
2021/03/15 04:52:12;;;;;;;14.40;1.90;;;;;;;;;;4931967;28;20026;-57
2021/03/15 04:54:38;;;;;;;13.63;2.38;;;;;;;;;;4929795;28;20042;-58
2021/03/15 04:57:06;;;;;;;14.70;2.92;;;;;;;;;;4914771;28;20040;-59
2021/03/15 04:59:35;;;;;;;11.90;2.58;;;;;;;;;;4935055;28;20028;-59
2021/03/15 05:02:08;;;;;;;10.40;2.30;;;;;;;;;;4934299;28;20051;-60
2021/03/15 05:04:36;;;;;;;13.02;1.77;;;;;;;;;;4932775;28;20023;-59
2021/03/15 05:07:02;;;;;;;14.95;2.30;;;;;;;;;;4929644;28;20031;-58
2021/03/15 05:09:28;;;;;;;9.95;1.77;;;;;;;;;;4933200;28;20176;-59
2021/03/15 05:12:01;;;;;;;13.27;2.22;;;;;;;;;;4914104;28;20081;-58
2021/03/15 05:14:29;;;;;;;13.85;2.75;;;;;;;;;;4915269;28;20963;-59
2021/03/15 05:16:57;;;;;;;24.50;2.58;;;;;;;;;;4915497;28;20074;-58
2021/03/15 05:19:25;;;;;;;18.17;1.63;;;;;;;;;;4933974;28;20086;-58
2021/03/15 05:21:53;;;;;;;13.50;2.65;;;;;;;;;;4929088;28;20035;-59
2021/03/15 05:24:19;;;;;;;17.02;2.25;;;;;;;;;;4932613;28;20038;-58
2021/03/15 05:26:49;;;;;;;11.98;1.80;;;;;;;;;;4932120;28;20039;-59
2021/03/15 05:29:20;;;;;;;14.70;3.47;;;;;;;;;;4930766;28;20038;-59
2021/03/15 05:31:52;;;;;;;11.90;2.47;;;;;;;;;;4931822;28;20286;-59
2021/03/15 05:34:20;;;;;;;;;;;;;;;;;;4914325;28;20050;-58
2021/03/15 05:36:46;;;;;;;16.83;2.33;;;;;;;;;;4922262;28;19914;-58
2021/03/15 05:39:11;;;;;;;27.50;2.28;;;;;;;;;;4924851;28;20034;-58
2021/03/15 05:41:50;;;;;;;8.68;1.95;;;;;;;;;;4930216;28;20074;-58
2021/03/15 05:44:35;;;;;;;18.63;2.58;;;;;;;;;;4929417;28;20027;-58
2021/03/15 05:47:11;;;;;;;17.95;2.10;;;;;;;;;;4931640;28;20039;-57
2021/03/15 05:50:02;;;;;;;10.88;1.88;;;;;;;;;;4932512;28;20070;-57
2021/03/15 05:52:49;;;;;;;15.48;2.17;;;;;;;;;;4927866;28;21304;-59
2021/03/15 05:55:29;;;;;;;10.50;1.67;;;;;;;;;;4932653;28;20085;-58
2021/03/15 05:58:06;;;;;;;11.68;1.80;;;;;;;;;;4935198;28;20143;-58
2021/03/15 06:00:37;;;;;;;25.55;2.25;;;;;;;;;;4929476;28;21081;-58
2021/03/15 06:03:18;;;;;;;15.32;2.28;;;;;;;;;;4914236;28;20165;-59
2021/03/15 06:05:45;;;;;;;31.40;2.75;;;;;;;;;;4928585;28;20031;-59
2021/03/15 06:08:23;;;;;;;18.00;2.85;;;;;;;;;;4933361;28;20027;-59
2021/03/15 06:11:01;;;;;;;26.08;3.03;;;;;;;;;;4914816;28;20031;-59
2021/03/15 06:13:29;;;;;;;20.50;2.72;;;;;;;;;;4917004;28;20043;-58
2021/03/15 06:15:58;;;;;;;25.33;3.30;;;;;;;;;;4926566;28;20039;-58
2021/03/15 06:18:23;;;;;;;24.23;2.05;;;;;;;;;;4913683;28;20046;-58
2021/03/15 06:20:51;;;;;;;18.98;2.95;;;;;;;;;;4930929;28;20035;-58
2021/03/15 06:23:17;;;;;;;28.15;2.22;;;;;;;;;;4912127;28;20426;-58
2021/03/15 06:25:48;;;;;;;18.52;3.28;;;;;;;;;;4932668;28;20033;-57
2021/03/15 06:28:18;;;;;;;29.85;3.05;;;;;;;;;;4932812;28;20035;-56
2021/03/15 06:30:44;;;;;;;43.80;3.47;;;;;;;;;;4931925;28;20037;-57
2021/03/15 06:33:11;;;;;;;28.20;2.83;;;;;;;;;;4910897;28;20026;-57
2021/03/15 06:35:43;;;;;;;30.08;3.15;;;;;;;;;;4927747;28;20034;-59
2021/03/15 06:38:11;;;;;;;;;;;;;;;;;;4912508;28;20027;-57
2021/03/15 06:40:39;;;;;;;27.92;2.85;;;;;;;;;;4909164;28;19954;-57
2021/03/15 06:43:11;;;;;;;18.30;1.95;;;;;;;;;;4909385;29;20048;-58
2021/03/15 06:45:42;;;;;;;27.27;3.00;;;;;;;;;;4912683;29;20059;-58
2021/03/15 06:48:07;;;;;;;17.58;2.10;;;;;;;;;;4914327;29;20028;-57
2021/03/15 06:50:33;;;;;;;28.73;2.25;;;;;;;;;;4925440;28;20130;-58
2021/03/15 06:53:00;;;;;;;24.35;2.72;;;;;;;;;;4909830;29;20031;-58
2021/03/15 06:55:34;;;;;;;34.85;2.35;;;;;;;;;;4925436;28;20123;-58
2021/03/15 06:58:19;;;;;;;15.65;1.92;;;;;;;;;;4927147;28;20161;-57
2021/03/15 07:00:45;;;;;;;22.77;3.45;;;;;;;;;;4925088;28;20162;-57
2021/03/15 07:03:19;;;;;;;29.40;2.58;;;;;;;;;;4926209;28;20093;-58
2021/03/15 07:05:54;;;;;;;25.38;2.53;;;;;;;;;;4911260;29;20058;-58
2021/03/15 07:08:25;;;;;;;22.67;2.17;;;;;;;;;;4910708;29;20024;-57
2021/03/15 07:10:56;;;;;;;26.33;2.35;;;;;;;;;;4906409;29;20032;-57
2021/03/15 07:13:27;;;;;;;8.82;1.80;;;;;;;;;;4912723;28;20079;-59
2021/03/15 07:15:55;;;;;;;27.98;2.47;;;;;;;;;;4929521;28;20046;-59
2021/03/15 07:18:27;;;;;;;11.05;1.95;;;;;;;;;;4924206;28;20036;-58
2021/03/15 07:20:53;;;;;;;16.10;1.70;;;;;;;;;;4911110;29;20122;-59
2021/03/15 07:23:39;;;;;;;14.18;2.00;;;;;;;;;;4926520;28;20027;-57
2021/03/15 07:26:17;;;;;;;19.48;2.47;;;;;;;;;;4908650;29;20046;-56
2021/03/15 07:28:43;;;;;;;18.23;2.65;;;;;;;;;;4911682;29;20032;-58
2021/03/15 07:31:24;;;;;;;27.15;2.60;;;;;;;;;;4912231;29;20027;-58
2021/03/15 07:33:55;;;;;;;41.30;2.92;;;;;;;;;;4927852;28;20130;-57
2021/03/15 07:36:20;;;;;;;16.73;3.25;;;;;;;;;;4926140;28;20065;-58
2021/03/15 07:38:47;;;;;;;36.40;3.00;;;;;;;;;;4914362;29;20110;-58
2021/03/15 07:41:16;;;;;;;33.10;3.60;;;;;;;;;;4908908;28;20799;-57
2021/03/15 07:43:47;;;;;;;19.13;3.40;;;;;;;;;;4932707;28;20047;-58
2021/03/15 07:46:22;;;;;;;15.75;2.20;;;;;;;;;;4920073;28;20027;-58
2021/03/15 07:48:47;;;;;;;;;;;;;;;;;;4936650;28;20077;-58
2021/03/15 07:51:15;;;;;;;20.50;1.98;;;;;;;;;;4919706;28;20542;-56
2021/03/15 07:53:47;;;;;;;20.98;2.28;;;;;;;;;;4931142;28;20318;-57
2021/03/15 07:56:20;;;;;;;19.52;2.60;;;;;;;;;;4907403;28;20050;-58
2021/03/15 07:58:48;;;;;;;26.02;2.20;;;;;;;;;;4935960;28;20035;-56
2021/03/15 08:01:14;;;;;;;25.30;2.80;;;;;;;;;;4933637;28;20588;-57
2021/03/15 08:03:44;;;;;;;26.10;2.92;;;;;;;;;;4934818;28;20027;-57
2021/03/15 08:06:14;;;;;;;19.88;2.30;;;;;;;;;;4933294;28;20054;-57
2021/03/15 08:08:40;;;;;;;20.77;3.22;;;;;;;;;;4931776;28;20035;-58
2021/03/15 08:11:11;;;;;;;22.20;2.70;;;;;;;;;;4933987;28;20042;-56
2021/03/15 08:13:39;;;;;;;24.08;1.95;;;;;;;;;;4933240;28;20074;-57
2021/03/15 08:16:05;;;;;;;18.15;2.53;;;;;;;;;;4930940;28;21411;-56
2021/03/15 08:18:34;;;;;;;18.30;2.28;;;;;;;;;;4913969;28;20041;-57
2021/03/15 08:21:11;;;;;;;18.13;2.38;;;;;;;;;;4936115;28;20035;-57
2021/03/15 08:23:42;;;;;;;19.55;1.95;;;;;;;;;;4932446;28;20031;-57
2021/03/15 08:26:08;;;;;;;9.50;1.80;;;;;;;;;;4927032;28;20070;-58
2021/03/15 08:28:36;;;;;;;13.82;1.88;;;;;;;;;;4928601;28;20043;-58
2021/03/15 08:31:08;;;;;;;16.85;2.67;;;;;;;;;;4913960;28;20140;-58
2021/03/15 08:33:33;;;;;;;10.88;1.60;;;;;;;;;;4914977;28;20126;-57
2021/03/15 08:36:01;;;;;;;13.27;1.95;;;;;;;;;;4930111;28;20049;-58
2021/03/15 08:38:32;;;;;;;15.23;2.28;;;;;;;;;;4908442;28;20949;-58
2021/03/15 08:41:08;;;;;;;13.75;1.70;;;;;;;;;;4931982;28;20054;-59
2021/03/15 08:43:36;;;;;;;20.23;2.70;;;;;;;;;;4930096;28;20259;-58
2021/03/15 08:46:02;;;;;;;18.58;3.33;;;;;;;;;;4936548;28;20023;-59
2021/03/15 08:48:36;;;;;;;25.00;2.38;;;;;;;;;;4932832;28;22321;-58
2021/03/15 08:51:08;;;;;;;23.75;2.85;;;;;;;;;;4932225;28;20027;-58
2021/03/15 08:53:36;;;;;;;18.95;1.95;;;;;;;;;;4930997;28;20066;-58
2021/03/15 08:56:10;;;;;;;16.98;2.17;;;;;;;;;;4932296;28;20122;-58
2021/03/15 08:58:36;;;;;;;22.27;2.63;;;;;;;;;;4928833;28;20042;-57
2021/03/15 09:01:04;;;;;;;17.17;1.77;;;;;;;;;;4929091;28;20316;-58
2021/03/15 09:03:48;;;;;;;22.65;2.65;;;;;;;;;;4932919;28;20039;-58
2021/03/15 09:06:34;;;;;;;18.33;3.30;;;;;;;;;;4924206;28;21779;-59
2021/03/15 09:09:11;;;;;;;15.00;2.50;;;;;;;;;;4920512;28;20034;-58
2021/03/15 09:11:36;;;;;;;20.30;3.28;;;;;;;;;;4924305;28;20058;-58
2021/03/15 09:16:43;;;;;;;32.28;3.33;;;;;;;;;;4915215;28;20039;-57
2021/03/15 09:19:24;;;;;;;29.10;3.42;;;;;;;;;;4931807;28;20031;-58
2021/03/15 09:21:56;;;;;;;12.05;2.28;;;;;;;;;;4913592;28;20999;-58
2021/03/15 09:24:32;;;;;;;12.85;2.20;;;;;;;;;;4927279;28;20047;-59
2021/03/15 09:27:01;;;;;;;24.58;2.35;;;;;;;;;;4932811;28;20442;-59
2021/03/15 09:29:26;;;;;;;16.83;2.72;;;;;;;;;;4930151;28;20594;-58
2021/03/15 09:32:04;;;;;;;17.33;2.60;;;;;;;;;;4931806;28;20043;-60
2021/03/15 09:34:30;;;;;;;28.92;2.55;;;;;;;;;;4920354;28;20122;-59
2021/03/15 09:36:56;;;;;;;23.63;2.70;;;;;;;;;;4913286;28;20073;-58
2021/03/15 09:39:25;;;;;;;26.27;2.95;;;;;;;;;;4929502;28;20031;-61
2021/03/15 09:41:52;;;;;;;23.55;2.70;;;;;;;;;;4931315;28;20250;-60
2021/03/15 09:44:29;;;;;;;17.73;3.10;;;;;;;;;;4929165;28;20673;-60
2021/03/15 09:46:55;;;;;;;27.75;3.13;;;;;;;;;;4934415;28;20073;-59
2021/03/15 09:49:36;;;;;;;22.33;2.67;;;;;;;;;;4933121;28;20409;-60
2021/03/15 09:52:14;;;;;;;21.38;2.60;;;;;;;;;;4929661;28;20128;-61
2021/03/15 09:54:39;;;;;;;17.38;3.95;;;;;;;;;;4934912;28;20490;-59
2021/03/15 09:57:05;;;;;;;28.23;2.78;;;;;;;;;;4930595;28;20030;-61
2021/03/15 09:59:31;;;;;;;19.65;2.88;;;;;;;;;;4935645;28;20450;-59
2021/03/15 10:01:57;;;;;;;28.23;2.50;;;;;;;;;;4913449;28;20038;-60
2021/03/15 10:04:28;;;;;;;22.25;2.83;;;;;;;;;;4907406;28;20070;-60
2021/03/15 10:06:55;;;;;;;32.25;3.50;;;;;;;;;;4912348;28;20172;-59
2021/03/15 10:09:20;;;;;;;22.30;2.45;;;;;;;;;;4929799;28;20054;-59
2021/03/15 10:11:50;;;;;;;20.30;2.95;;;;;;;;;;4912827;28;20039;-61
2021/03/15 10:14:15;;;;;;;19.98;3.15;;;;;;;;;;4927625;28;20616;-60
2021/03/15 10:17:03;;;;;;;23.42;2.85;;;;;;;;;;4930896;28;20102;-59
2021/03/15 10:19:32;;;;;;;17.25;2.92;;;;;;;;;;4919622;28;20034;-61
2021/03/15 10:22:17;;;;;;;22.42;3.03;;;;;;;;;;4934219;28;20070;-59
2021/03/15 10:24:44;;;;;;;28.98;3.13;;;;;;;;;;4931120;28;20210;-61
2021/03/15 10:27:19;;;;;;;13.40;2.10;;;;;;;;;;4911853;28;20118;-60
2021/03/15 10:29:54;;;;;;;20.38;2.15;;;;;;;;;;4929828;28;20035;-60
2021/03/15 10:32:27;;;;;;;24.70;2.67;;;;;;;;;;4929890;28;20080;-62
2021/03/15 10:34:56;;;;;;;24.60;2.53;;;;;;;;;;4928454;28;20045;-61
2021/03/15 10:37:25;;;;;;;25.90;2.83;;;;;;;;;;4930987;28;20098;-59
2021/03/15 10:39:52;;;;;;;27.85;2.40;;;;;;;;;;4931095;28;20046;-65
2021/03/15 10:42:18;;;;;;;20.98;3.03;;;;;;;;;;4925079;28;20055;-59
2021/03/15 10:44:46;;;;;;;25.73;3.03;;;;;;;;;;4910855;28;20070;-59
2021/03/15 10:47:13;;;;;;;16.25;2.33;;;;;;;;;;4915771;29;20087;-61
2021/03/15 10:49:42;;;;;;;16.67;2.35;;;;;;;;;;4911459;29;20166;-61
2021/03/15 10:52:08;;;;;;;15.35;2.95;;;;;;;;;;4914400;28;20713;-60
2021/03/15 10:54:37;;;;;;;16.63;2.92;;;;;;;;;;4914590;29;20044;-60
2021/03/15 10:57:18;;;;;;;14.32;2.50;;;;;;;;;;4927069;28;20039;-63
2021/03/15 10:59:45;;;;;;;14.90;2.80;;;;;;;;;;4909350;29;20368;-62
2021/03/15 11:02:18;;;;;;;24.50;3.13;;;;;;;;;;4912638;29;20034;-59
2021/03/15 11:04:51;;;;;;;21.90;2.80;;;;;;;;;;4926029;28;20119;-60
2021/03/15 11:07:22;;;;;;;31.30;3.70;;;;;;;;;;4925764;28;21000;-59
2021/03/15 11:09:58;;;;;;;16.33;2.80;;;;;;;;;;4913687;29;20038;-61
2021/03/15 11:12:30;;;;;;;35.13;3.33;;;;;;;;;;4924089;28;20559;-59
2021/03/15 11:15:05;;;;;;;20.70;2.65;;;;;;;;;;4913088;29;20452;-60
2021/03/15 11:17:34;;;;;;;26.42;3.53;;;;;;;;;;4925113;28;20046;-60
2021/03/15 11:20:02;;;;;;;22.45;3.05;;;;;;;;;;4926169;28;20039;-61
2021/03/15 11:22:30;;;;;;;28.00;3.38;;;;;;;;;;4912762;28;20093;-60
2021/03/15 11:25:09;;;;;;;25.33;2.97;;;;;;;;;;4906985;28;20031;-64
2021/03/15 11:27:39;;;;;;;24.60;3.10;;;;;;;;;;4909563;29;20032;-60
2021/03/15 11:30:17;;;;;;;26.50;2.85;;;;;;;;;;4911963;28;20111;-64
2021/03/15 11:32:43;;;;;;;20.30;3.38;;;;;;;;;;4908984;29;20073;-62
2021/03/15 11:35:18;;;;;;;22.15;2.83;;;;;;;;;;4927041;28;20047;-61
2021/03/15 11:37:48;;;;;;;25.50;2.50;;;;;;;;;;4925837;28;20035;-59
2021/03/15 11:40:28;;;;;;;20.65;3.08;;;;;;;;;;4912695;28;20031;-63
2021/03/15 11:42:56;;;;;;;25.33;2.67;;;;;;;;;;4923385;28;20067;-59
2021/03/15 11:45:22;;;;;;;42.78;4.68;;;;;;;;;;4929084;28;20090;-60
2021/03/15 11:47:50;;;;;;;20.55;2.95;;;;;;;;;;4930382;28;20116;-63
2021/03/15 11:50:18;;;;;;;27.10;3.13;;;;;;;;;;4928667;28;20453;-62
2021/03/15 11:52:46;;;;;;;25.38;3.20;;;;;;;;;;4925654;28;20054;-62
2021/03/15 11:55:14;;;;;;;23.75;2.92;;;;;;;;;;4908978;28;20043;-60
2021/03/15 11:57:40;;;;;;;24.77;2.70;;;;;;;;;;4922225;28;20110;-60
2021/03/15 12:00:08;;;;;;;26.38;3.10;;;;;;;;;;4928324;28;20058;-59
2021/03/15 12:02:37;;;;;;;24.13;3.08;;;;;;;;;;4908791;28;20121;-61
2021/03/15 12:05:13;;;;;;;24.00;2.72;;;;;;;;;;4912484;28;20135;-60
2021/03/15 12:07:38;;;;;;;22.17;3.38;;;;;;;;;;4927276;28;20620;-60
2021/03/15 12:10:06;;;;;;;16.10;2.20;;;;;;;;;;4931213;28;20032;-60
2021/03/15 12:12:31;;;;;;;18.48;2.17;;;;;;;;;;4929447;28;20070;-60
2021/03/15 12:14:59;;;;;;;19.23;2.75;;;;;;;;;;4928725;28;21059;-60
2021/03/15 12:17:25;;;;;;;29.25;2.58;;;;;;;;;;4929538;28;20035;-62
2021/03/15 12:19:53;;;;;;;21.35;3.03;;;;;;;;;;4910238;28;20035;-60
2021/03/15 12:22:21;;;;;;;17.20;2.95;;;;;;;;;;4909547;28;20045;-61
2021/03/15 12:24:47;;;;;;;15.63;2.60;;;;;;;;;;4929695;28;20035;-62
2021/03/15 12:27:12;;;;;;;18.65;2.83;;;;;;;;;;4929006;28;20031;-61
2021/03/15 12:29:38;;;;;;;24.50;3.22;;;;;;;;;;4933624;28;20039;-61
2021/03/15 12:32:04;;;;;;;21.25;3.35;;;;;;;;;;4932032;28;20039;-66
2021/03/15 12:34:34;;;;;;;25.98;2.50;;;;;;;;;;4905121;28;20035;-61
2021/03/15 12:37:02;;;;;;;21.67;3.33;;;;;;;;;;4935848;28;20036;-67
2021/03/15 12:39:27;;;;;;;24.35;3.10;;;;;;;;;;4931586;28;20041;-61
2021/03/15 12:41:55;;;;;;;34.72;3.60;;;;;;;;;;4926412;28;21012;-63
2021/03/15 12:44:26;;;;;;;27.17;2.38;;;;;;;;;;4913250;29;20027;-60
2021/03/15 12:46:52;;;;;;;24.80;2.85;;;;;;;;;;4908183;29;20044;-59
2021/03/15 12:49:18;;;;;;;19.45;2.22;;;;;;;;;;4913212;29;20964;-61
2021/03/15 12:51:44;;;;;;;17.85;2.67;;;;;;;;;;4926976;28;20039;-60
2021/03/15 12:54:11;;;;;;;23.75;2.72;;;;;;;;;;4910805;29;20047;-61
2021/03/15 12:56:39;;;;;;;18.83;3.00;;;;;;;;;;4924600;28;20031;-62
2021/03/15 12:59:06;;;;;;;23.30;3.05;;;;;;;;;;4913964;28;20032;-60
2021/03/15 13:01:32;;;;;;;25.20;2.65;;;;;;;;;;4915902;28;20027;-61
2021/03/15 13:03:58;;;;;;;24.50;3.30;;;;;;;;;;4890142;29;20051;-61
2021/03/15 13:06:24;;;;;;;20.92;3.33;;;;;;;;;;4913933;29;20447;-61
2021/03/15 13:08:51;;;;;;;24.13;2.40;;;;;;;;;;4914256;29;20028;-60
2021/03/15 13:11:17;;;;;;;15.63;2.80;;;;;;;;;;4908190;28;20028;-60
2021/03/15 13:13:47;;;;;;;17.08;2.88;;;;;;;;;;4923898;28;20035;-61
2021/03/15 13:16:13;;;;;;;20.98;2.58;;;;;;;;;;4910660;29;20032;-60
2021/03/15 13:18:44;;;;;;;26.60;3.30;;;;;;;;;;4926697;28;20487;-60
2021/03/15 13:21:11;;;;;;;17.05;3.05;;;;;;;;;;4909828;28;20414;-60
2021/03/15 13:23:42;;;;;;;19.30;2.20;;;;;;;;;;4908264;28;20027;-61
2021/03/15 13:26:09;;;;;;;25.95;2.88;;;;;;;;;;4908367;29;20028;-61
2021/03/15 13:28:37;;;;;;;14.75;2.88;;;;;;;;;;4926110;28;20070;-61
2021/03/15 13:31:03;;;;;;;16.92;2.20;;;;;;;;;;4910824;29;20040;-60
2021/03/15 13:33:29;;;;;;;14.75;2.63;;;;;;;;;;4925810;28;20049;-60
2021/03/15 13:35:59;;;;;;;17.20;3.50;;;;;;;;;;4909703;29;20054;-63
2021/03/15 13:38:27;;;;;;;17.63;3.13;;;;;;;;;;4926204;28;20432;-60
2021/03/15 13:40:52;;;;;;;29.60;2.55;;;;;;;;;;4908173;28;20047;-61
2021/03/15 13:43:22;;;;;;;18.77;3.08;;;;;;;;;;4904719;28;609863;-62
2021/03/15 13:45:53;;;;;;;12.77;2.20;;;;;;;;;;4912982;28;20042;-62
2021/03/15 13:48:18;;;;;;;30.63;3.25;;;;;;;;;;4913147;29;20110;-63
2021/03/15 13:50:46;;;;;;;21.02;2.42;;;;;;;;;;4927591;28;20042;-61
2021/03/15 13:53:17;;;;;;;23.83;2.95;;;;;;;;;;4913116;28;20027;-61
2021/03/15 13:55:47;;;;;;;18.85;2.55;;;;;;;;;;4928048;28;20055;-61
2021/03/15 13:58:18;;;;;;;21.15;3.05;;;;;;;;;;4912517;29;20134;-60
2021/03/15 14:00:44;;;;;;;16.48;2.40;;;;;;;;;;4910600;28;20114;-62
2021/03/15 14:03:12;;;;;;;20.27;3.03;;;;;;;;;;4927584;28;20036;-61
2021/03/15 14:05:38;;;;;;;22.58;3.45;;;;;;;;;;4925512;28;20143;-61
2021/03/15 14:08:05;;;;;;;20.55;2.95;;;;;;;;;;4926091;28;20052;-60
2021/03/15 14:10:33;;;;;;;27.70;3.17;;;;;;;;;;4911479;28;20027;-61
2021/03/15 14:12:59;;;;;;;20.13;3.10;;;;;;;;;;4914418;29;20043;-61
2021/03/15 14:15:24;;;;;;;18.05;2.47;;;;;;;;;;4911634;28;20039;-63
2021/03/15 14:17:50;;;;;;;22.92;2.80;;;;;;;;;;4907864;29;20091;-60
2021/03/15 14:20:19;;;;;;;29.23;3.05;;;;;;;;;;4910843;28;20701;-62
2021/03/15 14:22:45;;;;;;;22.60;2.80;;;;;;;;;;4910554;29;20047;-61
2021/03/15 14:25:16;;;;;;;25.95;2.50;;;;;;;;;;4925170;28;20048;-62
2021/03/15 14:27:44;;;;;;;24.88;3.10;;;;;;;;;;4912569;29;20064;-62
2021/03/15 14:30:10;;;;;;;22.17;2.97;;;;;;;;;;4925267;28;20038;-61
2021/03/15 14:32:38;;;;;;;39.80;3.97;;;;;;;;;;4914243;29;20040;-66
2021/03/15 14:35:06;;;;;;;20.73;4.07;;;;;;;;;;4926777;28;20123;-60
2021/03/15 14:37:32;;;;;;;26.08;3.63;;;;;;;;;;4927635;28;20047;-61
2021/03/15 14:39:58;;;;;;;25.10;3.00;;;;;;;;;;4913181;28;20031;-68
2021/03/15 14:42:23;;;;;;;16.25;3.33;;;;;;;;;;4909067;29;20435;-61
2021/03/15 14:44:51;;;;;;;19.05;3.03;;;;;;;;;;4898408;29;20031;-60
2021/03/15 14:47:17;;;;;;;26.25;2.95;;;;;;;;;;4912419;29;20035;-60
2021/03/15 14:49:43;;;;;;;20.98;2.78;;;;;;;;;;4900284;29;20103;-60